Auburn, Michigan
Current Conditions -  °F | °C
As of 12:53 AM on Saturday 29 Nov 2014 (Local Time) from KMBS Reporting Station
Overcast Overcast  
Wind Chill: 20°   Ceiling: 2900
Heat Index: 28°   Visibility: 9mi
Dew Point: 22°   Wind: 8mph
Humidity: 78%   Direction: 160°SSE
Pressure: 30.02"   Gusts: NA
Location:  43.6°N, 84.07°W
Report Text: KMBS 290553Z 16007KT 9SM BKN029 BKN035 OVC045 M02/M06 A3002 RMK AO2 SLP176 60000 T10221056 11022 21033 57022
Loading
Personal Weather Stations






























Interactive Weather Map New forecast layout! Learn more

10-Day Weather Forecast

Advertisements
Track Severe Weather on mobile